Time;durP1;ratioP1;P1;durP2;ratioP2;P2;SDS_P1;SDS_P2;PMS_P1;PMS_P2;Temp;Humidity;BMP_temperature;BMP_pressure;BME280_temperature;BME280_humidity;BME280_pressure;Samples;Min_cycle;Max_cycle;Signal;HPM_P1;HPM_P2
2022/09/17 00:00:09;;;;;;;36.85;4.82;;;12.40;73.90;;;;;;4107536;28;20076;-83
2022/09/17 00:02:09;;;;;;;26.45;4.15;;;12.40;73.80;;;;;;4106394;28;20037;-82
2022/09/17 00:04:10;;;;;;;35.72;4.18;;;12.40;73.80;;;;;;4123062;28;20022;-81
2022/09/17 00:06:12;;;;;;;29.00;4.07;;;12.40;73.70;;;;;;4110612;28;20038;-82
2022/09/17 00:08:13;;;;;;;27.27;4.10;;;12.40;73.60;;;;;;4141784;28;20145;-81
2022/09/17 00:10:15;;;;;;;25.70;3.65;;;12.40;73.50;;;;;;4110724;28;20545;-81
2022/09/17 00:12:15;;;;;;;34.75;3.97;;;12.40;73.50;;;;;;4109282;28;20098;-85
2022/09/17 00:14:17;;;;;;;29.35;4.35;;;12.40;73.50;;;;;;4125836;28;20030;-82
2022/09/17 00:16:27;;;;;;;35.35;3.88;;;12.30;73.40;;;;;;4121872;28;20217;-82
2022/09/17 00:18:28;;;;;;;39.20;4.80;;;12.40;73.40;;;;;;4114362;28;20026;-82
2022/09/17 00:20:29;;;;;;;31.42;4.22;;;12.40;73.30;;;;;;4139326;28;20113;-82
2022/09/17 00:22:29;;;;;;;26.67;3.95;;;12.30;73.20;;;;;;4109100;28;20069;-83
2022/09/17 00:24:30;;;;;;;29.70;3.95;;;12.30;73.20;;;;;;4141959;28;20022;-83
2022/09/17 00:26:32;;;;;;;34.95;4.05;;;12.30;73.20;;;;;;4108983;28;20045;-82
2022/09/17 00:28:32;;;;;;;36.63;4.25;;;12.40;73.20;;;;;;4108477;28;20046;-84
2022/09/17 00:30:33;;;;;;;22.33;3.03;;;12.30;73.20;;;;;;4124631;28;20050;-83
2022/09/17 00:32:34;;;;;;;31.70;4.10;;;12.40;73.40;;;;;;4108002;28;20035;-83
2022/09/17 00:34:34;;;;;;;31.55;3.72;;;12.30;73.30;;;;;;4102180;28;20030;-83
2022/09/17 00:36:37;;;;;;;25.15;3.70;;;12.40;73.30;;;;;;4105821;28;20108;-84
2022/09/17 00:38:37;;;;;;;25.60;3.80;;;12.40;73.30;;;;;;4107295;28;20030;-84
2022/09/17 00:40:38;;;;;;;31.92;4.55;;;12.40;73.30;;;;;;4108661;28;20101;-83
2022/09/17 00:42:39;;;;;;;24.67;3.70;;;12.40;73.20;;;;;;4106279;28;20027;-83
2022/09/17 00:44:45;;;;;;;21.08;3.83;;;12.40;73.10;;;;;;4105585;28;20884;-83
2022/09/17 00:46:47;;;;;;;23.75;4.30;;;12.40;73.00;;;;;;4105979;28;20153;-82
2022/09/17 00:48:49;;;;;;;30.73;3.85;;;12.40;73.00;;;;;;4110410;28;20027;-83
2022/09/17 00:50:51;;;;;;;26.17;4.10;;;12.40;72.90;;;;;;4127573;28;20022;-84
2022/09/17 00:52:56;;;;;;;22.88;3.50;;;12.40;72.70;;;;;;4106289;28;20096;-84
2022/09/17 00:55:13;;;;;;;28.17;3.90;;;12.40;72.70;;;;;;4105220;28;20058;-84
2022/09/17 00:57:14;;;;;;;30.55;4.38;;;12.40;72.60;;;;;;4107629;28;20377;-84
2022/09/17 00:59:15;;;;;;;24.00;3.90;;;12.40;72.60;;;;;;4110137;28;20391;-84
2022/09/17 01:01:16;;;;;;;21.52;3.10;;;12.40;72.50;;;;;;4105057;28;20038;-85
2022/09/17 01:03:17;;;;;;;29.00;4.30;;;12.40;72.50;;;;;;4108480;28;20370;-84
2022/09/17 01:05:25;;;;;;;33.35;4.53;;;12.40;72.40;;;;;;4108444;28;20033;-85
2022/09/17 01:07:42;;;;;;;25.00;3.53;;;12.40;73.20;;;;;;4109426;28;20031;-84
2022/09/17 01:10:00;;;;;;;21.55;3.60;;;12.40;72.40;;;;;;4109777;28;20545;-84
2022/09/17 01:12:16;;;;;;;28.27;4.45;;;12.40;72.40;;;;;;4125850;28;20034;-84
2022/09/17 01:14:36;;;;;;;29.20;3.75;;;12.40;72.40;;;;;;4113110;28;20515;-83
2022/09/17 01:16:39;;;;;;;24.13;3.75;;;12.30;72.10;;;;;;4098079;28;20221;-84
2022/09/17 01:18:46;;;;;;;;;;;12.40;72.20;;;;;;4113577;28;20563;-84
2022/09/17 01:21:02;;;;;;;24.38;3.47;;;12.40;72.10;;;;;;4111743;28;20293;-83
2022/09/17 01:23:50;;;;;;;21.27;3.75;;;12.40;71.90;;;;;;4106727;28;20035;-85
2022/09/17 01:26:18;;;;;;;22.25;3.15;;;12.40;72.00;;;;;;4111212;28;20034;-85
2022/09/17 01:29:08;;;;;;;33.60;3.60;;;12.40;71.90;;;;;;4126129;28;20025;-84
2022/09/17 01:31:13;;;;;;;25.85;3.20;;;12.40;71.90;;;;;;4113553;28;20034;-84
2022/09/17 01:33:37;;;;;;;28.15;3.72;;;12.40;71.80;;;;;;4108540;28;20510;-84
2022/09/17 01:35:44;;;;;;;22.70;3.35;;;12.40;71.80;;;;;;4092559;28;20058;-83
2022/09/17 01:38:26;;;;;;;40.47;4.00;;;12.40;71.70;;;;;;4111934;28;20525;-84
2022/09/17 01:40:36;;;;;;;37.67;3.47;;;12.40;71.60;;;;;;4096553;28;20038;-84
2022/09/17 01:42:55;;;;;;;22.85;3.60;;;12.40;71.40;;;;;;4115369;28;20594;-84
2022/09/17 01:45:10;;;;;;;30.90;3.65;;;12.40;71.40;;;;;;4117077;28;20565;-84
2022/09/17 01:47:30;;;;;;;22.98;3.17;;;12.40;71.20;;;;;;4125761;28;20600;-84
2022/09/17 01:49:33;;;;;;;26.95;4.03;;;12.40;71.90;;;;;;4112257;28;20037;-84
2022/09/17 01:51:36;;;;;;;;;;;12.40;71.20;;;;;;4110390;28;20525;-82
2022/09/17 01:54:05;;;;;;;27.10;3.85;;;12.40;71.00;;;;;;4113097;28;19914;-84
2022/09/17 01:56:09;;;;;;;27.55;3.80;;;12.30;70.80;;;;;;4112748;28;20588;-85
2022/09/17 01:58:17;;;;;;;17.52;2.95;;;12.30;70.60;;;;;;4115508;28;20391;-84
2022/09/17 02:00:19;;;;;;;25.80;3.53;;;12.40;70.70;;;;;;4113398;28;20030;-84
2022/09/17 02:02:26;;;;;;;26.27;3.65;;;12.40;70.70;;;;;;4113717;28;20475;-84
2022/09/17 02:04:37;;;;;;;28.00;3.42;;;12.30;70.50;;;;;;4140666;28;20030;-84
2022/09/17 02:06:44;;;;;;;21.27;2.72;;;12.30;70.40;;;;;;4112158;28;20038;-83
2022/09/17 02:08:55;;;;;;;26.48;3.40;;;12.30;70.40;;;;;;4109810;28;20050;-85
2022/09/17 02:11:09;;;;;;;23.80;3.42;;;12.30;70.40;;;;;;4112597;28;21444;-85
2022/09/17 02:13:20;;;;;;;23.05;3.13;;;12.30;70.30;;;;;;4109369;28;20027;-85
2022/09/17 02:15:36;;;;;;;29.23;3.25;;;12.30;70.20;;;;;;4109257;28;20019;-85
2022/09/17 02:17:52;;;;;;;23.77;3.90;;;12.30;70.10;;;;;;4140942;28;20168;-85
2022/09/17 02:19:54;;;;;;;20.83;3.40;;;12.30;70.00;;;;;;4111279;28;20150;-86
2022/09/17 02:22:01;;;;;;;24.00;3.42;;;12.30;69.80;;;;;;4111394;28;20123;-84
2022/09/17 02:24:21;;;;;;;20.58;2.97;;;12.30;69.70;;;;;;4142721;28;20645;-84
2022/09/17 02:26:25;;;;;;;20.17;3.47;;;12.30;69.60;;;;;;4105791;28;20133;-84
2022/09/17 02:28:37;;;;;;;24.50;2.95;;;12.40;70.30;;;;;;4124424;28;20046;-85
2022/09/17 02:30:38;;;;;;;25.63;4.30;;;12.30;69.40;;;;;;4143300;28;20020;-84
2022/09/17 02:32:39;;;;;;;30.95;3.08;;;12.30;69.40;;;;;;4108076;28;20033;-84
2022/09/17 02:34:40;;;;;;;24.08;3.25;;;12.30;69.40;;;;;;4107214;28;20038;-84
2022/09/17 02:36:40;;;;;;;29.13;4.07;;;12.30;69.40;;;;;;4123338;28;20113;-84
2022/09/17 02:38:44;;;;;;;25.83;3.05;;;12.20;69.20;;;;;;4110009;28;20038;-83
2022/09/17 02:40:49;;;;;;;29.50;4.30;;;12.30;69.40;;;;;;4124230;28;20072;-84
2022/09/17 02:43:12;;;;;;;27.63;3.22;;;12.20;69.20;;;;;;4108545;28;20027;-85
2022/09/17 02:45:45;;;;;;;22.35;3.22;;;12.30;69.20;;;;;;4114496;28;20044;-84
2022/09/17 02:48:20;;;;;;;19.90;3.10;;;12.30;69.20;;;;;;4107329;28;20018;-84
2022/09/17 02:50:29;;;;;;;30.77;3.33;;;12.20;69.10;;;;;;4138744;28;20495;-84
2022/09/17 02:52:54;;;;;;;14.27;2.53;;;12.30;69.10;;;;;;4103224;28;20114;-84
2022/09/17 02:55:12;;;;;;;25.40;3.92;;;12.20;68.90;;;;;;4104900;28;20109;-84
2022/09/17 02:57:28;;;;;;;29.13;4.00;;;12.20;69.00;;;;;;4139954;28;20034;-84
2022/09/17 02:59:42;;;;;;;22.38;3.75;;;12.20;69.00;;;;;;4138796;28;20025;-84
2022/09/17 03:01:57;;;;;;;;;;;12.20;69.00;;;;;;4104143;28;20031;-85
2022/09/17 03:03:58;;;;;;;;;;;12.20;68.90;;;;;;4107933;28;19916;-84
2022/09/17 03:05:59;;;;;;;23.95;3.03;;;12.20;68.80;;;;;;4106725;28;19910;-85
2022/09/17 03:08:00;;;;;;;31.75;3.60;;;12.10;68.60;;;;;;4105767;28;20026;-83
2022/09/17 03:10:01;;;;;;;20.83;3.05;;;12.10;68.60;;;;;;4110565;28;20077;-84
2022/09/17 03:12:02;;;;;;;23.25;3.10;;;12.10;68.60;;;;;;4107157;28;20558;-85
2022/09/17 03:14:04;;;;;;;23.15;3.30;;;12.10;68.70;;;;;;4110307;28;20550;-85
2022/09/17 03:16:05;;;;;;;29.83;3.70;;;12.00;68.70;;;;;;4107538;28;20054;-85
2022/09/17 03:18:06;;;;;;;24.85;3.40;;;12.00;68.70;;;;;;4139705;28;20026;-84
2022/09/17 03:20:07;;;;;;;24.88;3.35;;;12.00;68.80;;;;;;4110036;28;20118;-85
2022/09/17 03:22:08;;;;;;;32.95;3.83;;;11.90;68.80;;;;;;4104758;28;20023;-84
2022/09/17 03:24:10;;;;;;;27.08;3.65;;;11.90;68.90;;;;;;4106178;28;20053;-85
2022/09/17 03:26:11;;;;;;;20.27;2.92;;;12.00;68.90;;;;;;4106505;28;20041;-85
2022/09/17 03:28:11;;;;;;;26.75;3.75;;;11.90;68.90;;;;;;4107746;28;20118;-85
2022/09/17 03:30:12;;;;;;;22.80;3.28;;;12.00;69.10;;;;;;4108926;28;20031;-84
2022/09/17 03:32:13;;;;;;;25.15;3.25;;;11.90;69.20;;;;;;4107187;28;20102;-84
2022/09/17 03:34:14;;;;;;;27.15;3.75;;;11.80;69.00;;;;;;4104079;28;20145;-85
2022/09/17 03:36:14;;;;;;;22.83;3.05;;;11.80;69.10;;;;;;4109868;28;20101;-84
2022/09/17 03:38:16;;;;;;;23.88;3.10;;;11.90;69.20;;;;;;4111599;28;20039;-84
2022/09/17 03:40:16;;;;;;;22.00;3.28;;;11.80;69.20;;;;;;4124239;28;20027;-85
2022/09/17 03:42:17;;;;;;;23.35;3.67;;;11.80;69.20;;;;;;4110740;28;20039;-84
2022/09/17 03:44:18;;;;;;;22.67;2.88;;;11.80;69.30;;;;;;4104885;28;20062;-84
2022/09/17 03:46:19;;;;;;;28.20;3.40;;;11.80;69.40;;;;;;4107736;28;20121;-84
2022/09/17 03:48:21;;;;;;;22.70;3.20;;;11.80;69.50;;;;;;4109792;28;20019;-84
2022/09/17 03:50:21;;;;;;;30.05;3.95;;;11.70;69.40;;;;;;4107309;28;20143;-84
2022/09/17 03:52:22;;;;;;;28.05;3.85;;;11.70;69.40;;;;;;4107085;28;20164;-84
2022/09/17 03:54:23;;;;;;;31.80;4.10;;;11.70;69.50;;;;;;4105988;28;20039;-84
2022/09/17 03:56:23;;;;;;;27.25;3.25;;;11.70;69.50;;;;;;4108680;28;20062;-83
2022/09/17 03:58:24;;;;;;;19.90;3.25;;;11.70;69.50;;;;;;4121796;28;20109;-84
2022/09/17 04:00:25;;;;;;;27.25;2.95;;;11.70;69.50;;;;;;4105314;28;20134;-84
2022/09/17 04:02:25;;;;;;;23.95;3.20;;;11.80;69.60;;;;;;4138146;28;20422;-85
2022/09/17 04:04:26;;;;;;;26.48;4.25;;;11.70;69.50;;;;;;4120879;28;20030;-84
2022/09/17 04:06:26;;;;;;;24.95;3.55;;;11.60;69.50;;;;;;4106728;28;20026;-85
2022/09/17 04:08:27;;;;;;;23.45;3.08;;;11.70;69.50;;;;;;4120996;28;20113;-84
2022/09/17 04:10:28;;;;;;;26.60;2.90;;;11.60;69.50;;;;;;4107859;28;20414;-84
2022/09/17 04:12:28;;;;;;;27.33;3.13;;;11.60;69.50;;;;;;4106453;28;20050;-84
2022/09/17 04:14:29;;;;;;;26.85;3.10;;;11.70;69.60;;;;;;4123627;28;20041;-84
2022/09/17 04:16:30;;;;;;;27.88;3.20;;;11.50;69.50;;;;;;4106864;28;20744;-84
2022/09/17 04:18:31;;;;;;;29.38;3.67;;;11.50;69.50;;;;;;4136514;28;20039;-85
2022/09/17 04:20:31;;;;;;;25.95;3.60;;;11.50;69.60;;;;;;4106048;28;20146;-83
2022/09/17 04:22:32;;;;;;;31.55;3.47;;;11.50;69.70;;;;;;4108002;28;20034;-84
2022/09/17 04:24:33;;;;;;;20.90;3.33;;;11.50;69.70;;;;;;4105640;28;20038;-84
2022/09/17 04:26:33;;;;;;;28.08;3.55;;;11.50;69.80;;;;;;4105640;28;20034;-84
2022/09/17 04:28:34;;;;;;;28.58;3.30;;;11.50;69.80;;;;;;4107139;28;20039;-85
2022/09/17 04:30:35;;;;;;;23.10;2.58;;;11.50;69.90;;;;;;4106529;28;20611;-84
2022/09/17 04:32:36;;;;;;;25.45;3.50;;;11.50;69.90;;;;;;4104833;28;20041;-84
2022/09/17 04:34:37;;;;;;;19.95;3.03;;;11.50;70.00;;;;;;4105766;28;20122;-85
2022/09/17 04:36:38;;;;;;;25.35;2.92;;;11.40;70.00;;;;;;4103046;28;20030;-84
2022/09/17 04:38:38;;;;;;;21.08;3.95;;;11.40;70.00;;;;;;4103911;28;20023;-85
2022/09/17 04:40:41;;;;;;;15.77;2.60;;;11.40;70.20;;;;;;4108865;28;20043;-86
2022/09/17 04:42:41;;;;;;;18.95;3.55;;;11.50;70.30;;;;;;4106414;28;20030;-85
2022/09/17 04:44:42;;;;;;;24.02;2.95;;;11.50;70.30;;;;;;4106646;28;20030;-85
2022/09/17 04:46:43;;;;;;;20.60;2.70;;;11.50;70.40;;;;;;4121954;28;20073;-86
2022/09/17 04:48:43;;;;;;;22.15;2.92;;;11.50;70.50;;;;;;4107163;28;20019;-85
2022/09/17 04:50:44;;;;;;;22.48;3.15;;;11.40;70.40;;;;;;4111786;28;20122;-85
2022/09/17 04:52:46;;;;;;;29.55;3.45;;;11.40;70.50;;;;;;4107224;28;20491;-85
2022/09/17 04:54:46;;;;;;;26.05;3.55;;;11.50;70.60;;;;;;4137209;28;20030;-86
2022/09/17 04:56:47;;;;;;;22.88;3.08;;;11.50;70.60;;;;;;4108778;28;20031;-85
2022/09/17 04:58:48;;;;;;;26.73;2.95;;;11.40;70.60;;;;;;4107053;28;20405;-86
2022/09/17 05:00:49;;;;;;;21.77;3.25;;;11.40;70.60;;;;;;4108879;28;20035;-86
2022/09/17 05:02:52;;;;;;;32.40;4.28;;;11.40;70.70;;;;;;4109523;28;20028;-86
2022/09/17 05:04:54;;;;;;;19.02;3.22;;;11.40;70.70;;;;;;4125626;28;20054;-86
2022/09/17 05:06:54;;;;;;;22.25;3.03;;;11.50;70.90;;;;;;4108608;28;20029;-85
2022/09/17 05:08:55;;;;;;;24.05;2.72;;;11.40;70.80;;;;;;4108857;28;20607;-86
2022/09/17 05:10:56;;;;;;;24.73;3.35;;;11.50;71.00;;;;;;4110494;28;20114;-85
2022/09/17 05:12:57;;;;;;;22.65;3.42;;;11.40;71.00;;;;;;4106913;28;20031;-85
2022/09/17 05:14:57;;;;;;;27.35;3.38;;;11.50;71.10;;;;;;4108008;28;20018;-85
2022/09/17 05:16:58;;;;;;;33.85;3.72;;;11.40;71.10;;;;;;4106573;28;20439;-84
2022/09/17 05:18:59;;;;;;;22.90;2.88;;;11.50;71.20;;;;;;4107156;28;20043;-85
2022/09/17 05:20:59;;;;;;;24.13;3.80;;;11.50;71.20;;;;;;4104045;28;20023;-85
2022/09/17 05:23:00;;;;;;;27.98;3.60;;;11.50;71.20;;;;;;4136631;28;20485;-84
2022/09/17 05:25:01;;;;;;;28.50;3.35;;;11.50;72.00;;;;;;4122366;28;20026;-84
2022/09/17 05:27:02;;;;;;;28.30;3.38;;;11.60;71.30;;;;;;4106523;28;20035;-87
2022/09/17 05:29:03;;;;;;;26.83;3.97;;;11.50;71.30;;;;;;4105034;28;20085;-87
2022/09/17 05:31:04;;;;;;;29.95;3.75;;;11.50;71.30;;;;;;4104614;28;20023;-86
2022/09/17 05:33:05;;;;;;;24.33;3.17;;;11.50;71.40;;;;;;4107757;28;20407;-87
2022/09/17 05:35:07;;;;;;;24.30;3.40;;;11.50;71.40;;;;;;4108095;28;20510;-86
2022/09/17 05:37:10;;;;;;;21.52;3.80;;;11.60;71.40;;;;;;4137402;28;20029;-86
2022/09/17 05:39:11;;;;;;;26.45;2.90;;;11.60;71.40;;;;;;4108469;28;20035;-86
2022/09/17 05:41:12;;;;;;;25.63;3.05;;;11.60;72.20;;;;;;4122402;28;20104;-87
2022/09/17 05:43:12;;;;;;;29.02;3.63;;;11.60;71.50;;;;;;4110617;28;20447;-86
2022/09/17 05:45:14;;;;;;;28.58;3.15;;;11.60;71.50;;;;;;4108908;28;20054;-84
2022/09/17 05:47:15;;;;;;;23.13;3.00;;;11.60;71.60;;;;;;4122651;28;20406;-86
2022/09/17 05:49:15;;;;;;;26.23;3.13;;;11.70;71.70;;;;;;4108670;28;20023;-86
2022/09/17 05:51:17;;;;;;;23.90;2.97;;;11.70;71.70;;;;;;4134918;28;20112;-85
2022/09/17 05:53:18;;;;;;;13.48;2.58;;;11.70;71.70;;;;;;4104990;28;20066;-85
2022/09/17 05:55:21;;;;;;;22.13;3.80;;;11.70;71.70;;;;;;4110936;28;20570;-86
2022/09/17 05:57:22;;;;;;;28.55;3.72;;;11.80;71.80;;;;;;4110166;28;20047;-86
2022/09/17 05:59:22;;;;;;;27.35;3.88;;;11.80;71.90;;;;;;4110413;28;20734;-83
2022/09/17 06:01:23;;;;;;;26.58;4.07;;;11.80;71.90;;;;;;4136264;28;20034;-85
2022/09/17 06:03:24;;;;;;;22.80;3.03;;;11.80;72.00;;;;;;4121511;28;20546;-86
2022/09/17 06:05:24;;;;;;;36.05;3.88;;;11.90;72.30;;;;;;4102264;28;20225;-85
2022/09/17 06:07:25;;;;;;;22.95;3.30;;;11.90;72.30;;;;;;4107240;28;20027;-85
2022/09/17 06:09:26;;;;;;;27.02;3.78;;;11.90;72.50;;;;;;4107555;28;20019;-85
2022/09/17 06:11:27;;;;;;;25.90;3.30;;;12.00;72.50;;;;;;4108934;28;20037;-84
2022/09/17 06:13:28;;;;;;;31.90;3.78;;;12.00;72.40;;;;;;4139424;28;20565;-85
2022/09/17 06:15:28;;;;;;;26.73;3.63;;;12.10;72.30;;;;;;4109793;28;20038;-85
2022/09/17 06:17:33;;;;;;;18.48;3.03;;;12.10;72.10;;;;;;4107884;28;20578;-86
2022/09/17 06:19:34;;;;;;;18.45;2.65;;;12.20;71.90;;;;;;4108104;28;20031;-86
2022/09/17 06:21:35;;;;;;;18.52;3.47;;;12.20;72.00;;;;;;4110640;28;20658;-86
2022/09/17 06:23:36;;;;;;;22.05;3.03;;;12.30;71.90;;;;;;4138167;28;20022;-85
2022/09/17 06:25:36;;;;;;;18.00;2.72;;;12.30;71.90;;;;;;4105623;28;20409;-86
2022/09/17 06:27:37;;;;;;;22.45;2.83;;;12.40;71.70;;;;;;4109478;28;20110;-86
2022/09/17 06:29:39;;;;;;;19.55;2.83;;;12.50;71.60;;;;;;4109525;28;20064;-85
2022/09/17 06:31:43;;;;;;;22.40;3.08;;;12.50;71.40;;;;;;4139481;28;20532;-88
2022/09/17 06:33:44;;;;;;;22.73;3.03;;;12.50;71.30;;;;;;4137285;28;20036;-85
2022/09/17 06:35:44;;;;;;;25.63;3.08;;;12.50;71.20;;;;;;4105712;28;20047;-85
2022/09/17 06:37:45;;;;;;;21.17;2.60;;;12.50;71.00;;;;;;4102659;28;20125;-86
2022/09/17 06:39:46;;;;;;;23.58;2.75;;;12.60;70.80;;;;;;4107667;28;20242;-86
2022/09/17 06:41:47;;;;;;;21.95;3.30;;;12.60;70.70;;;;;;4106700;28;20073;-86
2022/09/17 06:43:53;;;;;;;30.05;3.45;;;12.70;70.60;;;;;;4107504;28;20033;-85
2022/09/17 06:45:55;;;;;;;17.38;2.70;;;12.70;70.40;;;;;;4109442;28;20115;-85
2022/09/17 06:47:56;;;;;;;20.55;3.92;;;12.60;70.30;;;;;;4119137;28;20037;-85
2022/09/17 06:49:58;;;;;;;19.27;2.47;;;12.70;70.40;;;;;;4108058;28;20027;-86
2022/09/17 06:51:59;;;;;;;23.42;3.85;;;12.70;70.40;;;;;;4105000;28;20030;-86
2022/09/17 06:54:00;;;;;;;21.85;3.17;;;12.70;70.20;;;;;;4106919;28;20089;-85
2022/09/17 06:56:02;;;;;;;18.40;3.25;;;12.70;70.20;;;;;;4123863;28;20634;-85
2022/09/17 06:58:02;;;;;;;23.92;3.17;;;12.80;70.20;;;;;;4108058;28;20031;-86
2022/09/17 07:00:03;;;;;;;18.77;3.22;;;12.70;70.10;;;;;;4106774;28;20070;-85
2022/09/17 07:02:04;;;;;;;21.05;3.50;;;12.70;70.90;;;;;;4108071;28;20058;-85
2022/09/17 07:04:05;;;;;;;27.58;3.83;;;12.80;70.40;;;;;;4105303;28;20027;-85
2022/09/17 07:06:11;;;;;;;24.38;3.10;;;12.80;70.00;;;;;;4106305;28;20023;-85
2022/09/17 07:08:12;;;;;;;21.55;4.07;;;12.90;70.10;;;;;;4141679;28;20593;-86
2022/09/17 07:10:12;;;;;;;19.33;2.72;;;12.80;70.10;;;;;;4111387;28;20039;-85
2022/09/17 07:12:13;;;;;;;18.17;3.15;;;12.80;70.10;;;;;;4114202;28;20110;-87
2022/09/17 07:14:14;;;;;;;21.98;2.97;;;12.90;70.20;;;;;;4112807;28;20074;-85
2022/09/17 07:16:14;;;;;;;17.17;3.33;;;12.90;70.10;;;;;;4113042;28;20362;-86
2022/09/17 07:18:15;;;;;;;21.50;2.53;;;12.90;70.10;;;;;;4126471;28;20038;-85
2022/09/17 07:20:16;;;;;;;20.52;2.70;;;12.90;70.10;;;;;;4111551;28;20106;-85
2022/09/17 07:22:18;;;;;;;20.88;2.83;;;12.90;70.10;;;;;;4121839;28;20027;-85
2022/09/17 07:24:18;;;;;;;20.95;2.70;;;13.00;70.10;;;;;;4108891;28;20035;-85
2022/09/17 07:26:19;;;;;;;22.33;3.50;;;13.00;70.10;;;;;;4122544;28;20050;-86
2022/09/17 07:28:21;;;;;;;17.45;2.47;;;12.90;70.10;;;;;;4105347;28;20019;-85
2022/09/17 07:30:22;;;;;;;22.20;3.28;;;13.00;70.10;;;;;;4089460;28;21757;-85
2022/09/17 07:32:23;;;;;;;23.30;3.88;;;13.00;70.20;;;;;;4108458;28;20030;-85
2022/09/17 07:34:26;;;;;;;14.13;2.50;;;13.00;70.10;;;;;;4139022;28;20037;-85
2022/09/17 07:36:27;;;;;;;;;;;13.10;70.10;;;;;;4108150;28;20031;-85
2022/09/17 07:38:29;;;;;;;21.42;3.35;;;13.10;70.10;;;;;;4105365;28;19921;-85
2022/09/17 07:40:30;;;;;;;18.88;2.85;;;13.10;69.90;;;;;;4107049;28;20033;-85
2022/09/17 07:42:31;;;;;;;26.73;2.95;;;13.10;69.90;;;;;;4105470;28;20094;-84
2022/09/17 07:44:32;;;;;;;18.50;3.15;;;13.10;69.90;;;;;;4105128;28;20035;-85
2022/09/17 07:46:32;;;;;;;22.33;3.22;;;13.10;69.90;;;;;;4119085;28;20033;-85
2022/09/17 07:48:34;;;;;;;14.50;2.38;;;13.10;69.90;;;;;;4104710;28;20036;-85
2022/09/17 07:50:36;;;;;;;21.73;2.58;;;13.20;70.00;;;;;;4107986;28;20128;-85
2022/09/17 07:52:37;;;;;;;20.48;3.55;;;13.20;70.10;;;;;;4119367;28;20037;-85
2022/09/17 07:54:37;;;;;;;14.60;2.70;;;13.20;70.10;;;;;;4121442;28;20498;-85
2022/09/17 07:56:38;;;;;;;31.00;2.95;;;13.20;70.10;;;;;;4122799;28;20030;-85
2022/09/17 07:58:39;;;;;;;28.30;3.25;;;13.20;70.10;;;;;;4108571;28;20359;-84
2022/09/17 08:00:40;;;;;;;17.50;2.28;;;13.20;69.90;;;;;;4123968;28;20037;-85
2022/09/17 08:02:41;;;;;;;16.15;2.50;;;13.20;69.90;;;;;;4109612;28;20467;-84
2022/09/17 08:04:42;;;;;;;17.15;2.53;;;13.20;69.90;;;;;;4092142;28;20027;-83
2022/09/17 08:06:47;;;;;;;15.15;2.50;;;13.30;69.90;;;;;;4107455;28;20367;-85
2022/09/17 08:08:48;;;;;;;18.55;2.83;;;13.30;70.00;;;;;;4122299;28;20462;-85
2022/09/17 08:10:49;;;;;;;17.67;2.70;;;13.30;70.00;;;;;;4122335;28;20122;-85
2022/09/17 08:12:53;;;;;;;19.83;2.90;;;13.30;70.10;;;;;;4100884;28;22072;-90
2022/09/17 08:14:54;;;;;;;21.90;2.53;;;13.30;70.00;;;;;;4132579;28;20092;-85
2022/09/17 08:16:54;;;;;;;18.70;2.40;;;13.40;70.00;;;;;;4114712;28;20038;-86
2022/09/17 08:18:56;;;;;;;22.67;3.15;;;13.40;70.00;;;;;;4105481;28;20035;-86
2022/09/17 08:20:58;;;;;;;16.35;2.80;;;13.40;70.00;;;;;;4117532;28;20058;-85
2022/09/17 08:23:00;;;;;;;15.30;2.67;;;13.50;70.10;;;;;;4101511;28;20118;-87
2022/09/17 08:25:03;;;;;;;12.35;2.20;;;13.50;70.20;;;;;;4098249;28;20896;-86
2022/09/17 08:27:04;;;;;;;18.52;2.45;;;13.40;70.20;;;;;;4082445;28;20467;-86
2022/09/17 08:29:06;;;;;;;16.52;2.28;;;13.50;70.30;;;;;;4115206;28;20407;-86
2022/09/17 08:31:07;;;;;;;13.38;2.40;;;13.50;70.10;;;;;;4103068;28;20687;-85
2022/09/17 08:33:08;;;;;;;16.58;2.60;;;13.50;69.90;;;;;;4099618;28;20051;-85
2022/09/17 08:35:10;;;;;;;17.42;2.78;;;13.50;69.90;;;;;;4100925;28;20035;-85
2022/09/17 08:37:11;;;;;;;15.85;2.65;;;13.60;70.00;;;;;;4101873;28;20554;-84
2022/09/17 08:39:12;;;;;;;13.98;2.40;;;13.70;70.10;;;;;;4119507;28;20030;-85
2022/09/17 08:41:50;;;;;;;15.07;2.17;;;13.70;69.90;;;;;;4096160;28;20511;-85
2022/09/17 08:44:03;;;;;;;17.20;2.45;;;13.60;69.70;;;;;;4098776;28;22233;-86
2022/09/17 08:46:07;;;;;;;27.10;2.63;;;13.70;69.80;;;;;;4119438;28;20741;-85
2022/09/17 08:48:12;;;;;;;18.90;2.45;;;13.80;70.00;;;;;;4099487;28;20030;-85
2022/09/17 08:50:37;;;;;;;18.08;3.25;;;13.80;69.80;;;;;;4108774;28;20034;-85
2022/09/17 08:53:02;;;;;;;15.77;2.35;;;13.80;69.80;;;;;;4111423;28;20061;-84
2022/09/17 08:55:44;;;;;;;18.90;3.13;;;13.80;69.70;;;;;;4099398;28;20141;-85
2022/09/17 08:58:22;;;;;;;19.50;2.53;;;13.80;69.60;;;;;;4088925;28;20039;-85
2022/09/17 09:00:23;;;;;;;14.32;2.03;;;13.90;69.60;;;;;;4096884;28;20602;-86
2022/09/17 09:03:02;;;;;;;17.05;2.78;;;14.00;69.80;;;;;;4112334;28;20426;-85
2022/09/17 09:05:15;;;;;;;16.05;2.53;;;14.00;69.80;;;;;;4058237;29;20036;-86
2022/09/17 09:07:25;;;;;;;15.73;2.60;;;14.10;69.50;;;;;;4084665;28;20034;-86
2022/09/17 09:09:32;;;;;;;14.00;2.03;;;14.10;69.30;;;;;;4099477;28;20031;-86
2022/09/17 09:11:33;;;;;;;13.23;1.90;;;14.20;69.30;;;;;;4099812;28;20042;-85
2022/09/17 09:13:41;;;;;;;14.93;2.00;;;14.20;69.30;;;;;;4096960;28;20041;-86
2022/09/17 09:15:57;;;;;;;19.70;2.20;;;14.20;69.20;;;;;;4095875;28;20031;-85
2022/09/17 09:18:19;;;;;;;11.07;2.15;;;14.30;69.20;;;;;;4107361;28;20045;-86
2022/09/17 09:20:35;;;;;;;13.05;2.10;;;14.40;69.00;;;;;;4116361;28;20035;-86
2022/09/17 09:22:49;;;;;;;18.50;2.42;;;14.40;68.90;;;;;;4109891;28;20682;-85
2022/09/17 09:25:10;;;;;;;16.33;2.08;;;14.50;68.90;;;;;;4110779;28;20042;-84
2022/09/17 09:27:18;;;;;;;17.23;2.10;;;14.50;68.80;;;;;;4115338;28;20396;-86
2022/09/17 09:29:41;;;;;;;16.25;1.90;;;14.60;68.30;;;;;;4100174;28;20543;-85
2022/09/17 09:31:50;;;;;;;16.00;2.35;;;14.70;67.70;;;;;;4104365;28;20074;-86
2022/09/17 09:33:51;;;;;;;14.52;2.47;;;14.70;67.50;;;;;;4104770;28;20056;-85
2022/09/17 09:35:52;;;;;;;14.73;1.98;;;14.80;67.20;;;;;;4107210;28;20058;-84
2022/09/17 09:38:19;;;;;;;10.30;1.83;;;14.80;66.70;;;;;;4114526;28;20034;-86
2022/09/17 09:40:29;;;;;;;14.13;1.80;;;14.90;66.10;;;;;;4099603;28;20118;-86
2022/09/17 09:42:32;;;;;;;13.60;1.70;;;14.90;66.00;;;;;;4119046;28;20550;-86
2022/09/17 09:44:33;;;;;;;12.27;1.70;;;15.00;66.20;;;;;;4105801;28;20499;-85
2022/09/17 09:46:49;;;;;;;14.55;1.67;;;15.00;66.30;;;;;;4096564;28;20035;-86
2022/09/17 09:49:11;;;;;;;11.73;1.83;;;15.10;65.90;;;;;;4099570;28;20014;-86
2022/09/17 09:51:33;;;;;;;14.25;1.80;;;15.20;65.80;;;;;;4106565;28;20031;-86
2022/09/17 09:53:36;;;;;;;11.50;2.08;;;15.30;65.50;;;;;;4134920;28;20026;-86
2022/09/17 09:56:23;;;;;;;10.05;1.70;;;15.40;65.60;;;;;;4102672;28;20403;-87
2022/09/17 09:58:31;;;;;;;8.15;1.55;;;15.40;65.40;;;;;;4101045;28;20058;-86
2022/09/17 10:00:37;;;;;;;7.82;1.65;;;15.50;65.50;;;;;;4105792;28;20833;-86
2022/09/17 10:02:38;;;;;;;11.68;1.58;;;15.60;65.40;;;;;;4106631;28;20035;-86
2022/09/17 10:04:39;;;;;;;7.97;1.10;;;15.70;65.30;;;;;;4106866;28;20556;-86
2022/09/17 10:06:40;;;;;;;7.18;1.08;;;15.70;64.90;;;;;;4123113;28;20033;-84
2022/09/17 10:09:01;;;;;;;8.02;1.40;;;15.80;64.30;;;;;;4142191;28;20026;-84
2022/09/17 10:11:23;;;;;;;13.00;1.88;;;15.80;63.20;;;;;;4138417;28;20038;-85
2022/09/17 10:13:25;;;;;;;15.27;2.13;;;15.90;63.60;;;;;;4138177;28;20044;-86
2022/09/17 10:15:27;;;;;;;15.52;1.48;;;15.90;63.70;;;;;;4105542;28;20093;-85
2022/09/17 10:17:28;;;;;;;8.25;1.13;;;16.00;63.50;;;;;;4106210;28;20037;-87
2022/09/17 10:19:29;;;;;;;11.68;1.10;;;16.00;63.00;;;;;;4105201;28;20776;-86
2022/09/17 10:21:41;;;;;;;10.23;1.58;;;16.00;61.90;;;;;;4115702;28;20519;-86
2022/09/17 10:23:42;;;;;;;14.63;1.65;;;16.00;61.30;;;;;;4114610;28;20153;-86
2022/09/17 10:25:43;;;;;;;10.55;1.42;;;16.10;61.90;;;;;;4119332;28;20030;-86
2022/09/17 10:27:46;;;;;;;14.77;2.03;;;16.10;62.00;;;;;;4104099;28;20143;-85
2022/09/17 10:29:50;;;;;;;8.27;1.30;;;16.20;62.10;;;;;;4101974;28;20114;-84
2022/09/17 10:31:53;;;;;;;10.70;1.45;;;16.10;62.00;;;;;;4125856;28;20037;-85
2022/09/17 10:34:00;;;;;;;10.15;1.70;;;16.10;62.20;;;;;;4098538;28;20109;-87
2022/09/17 10:36:08;;;;;;;12.80;1.88;;;16.10;61.60;;;;;;4107968;28;20050;-87
2022/09/17 10:38:27;;;;;;;6.53;1.33;;;16.20;61.60;;;;;;4063706;28;20705;-86
2022/09/17 10:40:31;;;;;;;11.80;1.40;;;16.20;60.90;;;;;;4104838;28;20064;-86
2022/09/17 10:42:31;;;;;;;10.05;1.33;;;16.30;61.20;;;;;;4088925;28;20039;-85
2022/09/17 10:44:35;;;;;;;7.97;1.33;;;16.30;61.40;;;;;;4077432;28;20027;-85